Time;durP1;ratioP1;P1;durP2;ratioP2;P2;SDS_P1;SDS_P2;PMS_P1;PMS_P2;Temp;Humidity;BMP_temperature;BMP_pressure;BME280_temperature;BME280_humidity;BME280_pressure;Samples;Min_cycle;Max_cycle;Signal;HPM_P1;HPM_P2
2021/10/19 00:00:21;;;;;;;14.52;10.98;;;;;;;10.79;70.88;101475.78;5051807;28;20403;-40
2021/10/19 00:02:46;;;;;;;11.55;9.77;;;;;;;10.78;70.96;101466.09;5053433;28;20041;-41
2021/10/19 00:05:12;;;;;;;11.23;9.73;;;;;;;10.76;70.98;101466.09;5047627;28;20032;-40
2021/10/19 00:07:38;;;;;;;13.05;10.68;;;;;;;10.76;70.88;101471.38;5051637;28;20732;-41
2021/10/19 00:10:07;;;;;;;13.27;10.70;;;;;;;10.77;71.26;101482.78;5054850;28;20049;-41
2021/10/19 00:12:33;;;;;;;11.30;9.73;;;;;;;10.76;71.10;101481.94;5050067;28;20030;-41
2021/10/19 00:14:58;;;;;;;13.00;10.35;;;;;;;10.76;71.16;101489.84;5035723;28;20392;-41
2021/10/19 00:17:23;;;;;;;12.80;9.50;;;;;;;10.77;71.07;101488.06;5049637;28;20056;-41
2021/10/19 00:19:49;;;;;;;11.73;9.52;;;;;;;10.76;70.98;101479.28;5033665;28;20120;-41
2021/10/19 00:22:15;;;;;;;11.25;10.02;;;;;;;10.76;71.08;101471.38;5050870;28;20035;-40
2021/10/19 00:24:40;;;;;;;13.82;10.85;;;;;;;10.77;70.91;101470.50;5048658;28;20028;-40
2021/10/19 00:27:06;;;;;;;12.98;10.52;;;;;;;10.77;71.28;101472.22;5049526;28;20468;-40
2021/10/19 00:29:32;;;;;;;11.63;9.68;;;;;;;10.76;71.19;101462.56;5045620;28;20086;-41
2021/10/19 00:31:57;;;;;;;13.30;10.25;;;;;;;10.75;71.04;101464.34;5038634;28;20021;-41
2021/10/19 00:34:23;;;;;;;13.38;10.57;;;;;;;10.76;71.21;101465.19;5052354;28;20024;-41
2021/10/19 00:36:48;;;;;;;11.30;9.13;;;;;;;10.75;71.14;101459.06;5032618;28;20059;-40
2021/10/19 00:39:14;;;;;;;12.40;10.32;;;;;;;10.75;71.27;101463.44;5055344;28;20393;-41
2021/10/19 00:41:40;;;;;;;11.10;9.77;;;;;;;10.75;71.35;101463.44;5055854;28;20083;-41
2021/10/19 00:44:06;;;;;;;12.00;9.55;;;;;;;10.75;70.93;101452.91;5035947;28;20108;-40
2021/10/19 00:46:31;;;;;;;12.48;10.35;;;;;;;10.75;71.17;101434.44;5053139;28;20136;-41
2021/10/19 00:48:56;;;;;;;11.57;10.20;;;;;;;10.75;71.15;101442.34;5057805;28;20039;-40
2021/10/19 00:51:22;;;;;;;16.30;11.07;;;;;;;10.75;70.97;101450.25;5034596;28;20017;-40
2021/10/19 00:53:47;;;;;;;13.00;10.75;;;;;;;10.76;71.19;101465.19;5038180;28;20026;-41
2021/10/19 00:56:13;;;;;;;13.10;10.38;;;;;;;10.74;70.85;101459.06;5056659;28;20021;-40
2021/10/19 00:58:39;;;;;;;12.20;10.05;;;;;;;10.74;71.18;101462.56;5053899;28;20025;-41
2021/10/19 01:01:05;;;;;;;12.48;11.18;;;;;;;10.74;71.17;101461.69;5057447;28;20162;-41
2021/10/19 01:03:31;;;;;;;12.60;10.45;;;;;;;10.75;71.02;101468.72;5050839;28;20037;-40
2021/10/19 01:05:58;;;;;;;14.25;10.05;;;;;;;10.74;71.29;101462.56;5051617;28;20025;-41
2021/10/19 01:08:24;;;;;;;11.82;9.88;;;;;;;10.75;71.02;101455.53;5047960;28;20021;-40
2021/10/19 01:10:49;;;;;;;12.90;10.07;;;;;;;10.73;70.85;101449.34;5048694;28;20171;-41
2021/10/19 01:13:15;;;;;;;11.25;10.05;;;;;;;10.73;70.90;101444.97;5055407;28;20150;-41
2021/10/19 01:15:40;;;;;;;15.40;11.10;;;;;;;10.73;71.03;101438.81;5048740;28;20040;-41
2021/10/19 01:18:05;;;;;;;11.80;9.75;;;;;;;10.73;71.26;101444.09;5050877;28;20098;-41
2021/10/19 01:20:35;;;;;;;13.13;10.07;;;;;;;10.73;71.15;101455.53;5051796;28;20480;-41
2021/10/19 01:23:01;;;;;;;11.77;9.85;;;;;;;10.74;70.98;101453.78;5056495;28;20101;-41
2021/10/19 01:25:29;;;;;;;11.30;9.57;;;;;;;10.74;71.20;101456.41;5054793;28;20040;-42
2021/10/19 01:28:00;;;;;;;15.07;10.82;;;;;;;10.73;71.29;101449.34;5051076;28;20392;-42
2021/10/19 01:30:26;;;;;;;12.70;10.38;;;;;;;10.73;71.23;101449.34;5056033;28;20163;-42
2021/10/19 01:32:53;;;;;;;12.90;9.90;;;;;;;10.73;71.18;101444.09;5057892;28;20450;-42
2021/10/19 01:35:19;;;;;;;11.55;10.00;;;;;;;10.73;70.94;101447.63;5056615;28;20025;-42
2021/10/19 01:37:44;;;;;;;11.88;10.00;;;;;;;10.72;71.23;101431.78;5057381;28;20086;-42
2021/10/19 01:40:13;;;;;;;13.60;10.35;;;;;;;10.72;71.02;101429.13;5053382;28;20024;-42
2021/10/19 01:42:39;;;;;;;12.80;10.57;;;;;;;10.71;71.03;101422.97;5054392;28;20025;-43
2021/10/19 01:45:17;;;;;;;13.93;10.82;;;;;;;10.71;71.03;101416.81;5057698;28;20037;-42
2021/10/19 01:47:43;;;;;;;16.23;11.18;;;;;;;10.71;70.90;101406.28;5063415;28;20515;-42
2021/10/19 01:50:10;;;;;;;15.07;12.15;;;;;;;10.72;71.09;101410.66;5056527;28;20499;-42
2021/10/19 01:52:36;;;;;;;14.63;11.05;;;;;;;10.72;71.14;101408.03;5058567;28;20025;-42
2021/10/19 01:55:02;;;;;;;16.40;12.10;;;;;;;10.72;71.05;101406.28;5035446;28;20044;-42
2021/10/19 01:57:28;;;;;;;12.55;10.48;;;;;;;10.71;71.10;101408.91;5051253;28;20722;-42
2021/10/19 01:59:53;;;;;;;14.57;10.77;;;;;;;10.70;71.14;101399.25;5053311;28;20021;-42
2021/10/19 02:02:18;;;;;;;14.38;11.48;;;;;;;10.71;71.05;101398.34;5054206;28;20029;-42
2021/10/19 02:04:44;;;;;;;13.32;11.60;;;;;;;10.71;71.08;101404.50;5057116;28;20024;-41
2021/10/19 02:07:09;;;;;;;15.50;11.05;;;;;;;10.72;71.03;101400.13;5056939;28;20024;-42
2021/10/19 02:09:34;;;;;;;13.98;10.80;;;;;;;10.71;70.99;101406.28;5056942;28;20036;-42
2021/10/19 02:11:59;;;;;;;16.17;11.82;;;;;;;10.70;70.95;101413.31;5057247;28;20021;-41
2021/10/19 02:14:25;;;;;;;14.07;10.80;;;;;;;10.71;71.09;101401.84;5051585;28;20040;-42
2021/10/19 02:16:50;;;;;;;13.65;10.88;;;;;;;10.70;71.06;101407.16;5054474;28;20063;-42
2021/10/19 02:19:15;;;;;;;14.68;11.77;;;;;;;10.70;71.06;101397.47;5056583;28;20032;-41
2021/10/19 02:21:41;;;;;;;13.23;10.73;;;;;;;10.71;70.64;101393.09;5052827;28;20024;-42
2021/10/19 02:24:06;;;;;;;13.52;11.40;;;;;;;10.69;71.27;101394.81;5057130;28;20039;-42
2021/10/19 02:26:31;;;;;;;14.38;11.43;;;;;;;10.70;71.26;101402.75;5058868;28;20028;-42
2021/10/19 02:28:57;;;;;;;13.40;10.70;;;;;;;10.69;70.92;101395.72;5056792;28;20029;-42
2021/10/19 02:31:22;;;;;;;14.68;11.15;;;;;;;10.69;70.83;101400.09;5061168;28;20028;-43
2021/10/19 02:33:47;;;;;;;15.00;11.02;;;;;;;10.70;71.30;101417.72;5054438;28;20021;-42
2021/10/19 02:36:13;;;;;;;15.00;11.63;;;;;;;10.68;71.10;101415.06;5054035;28;20487;-42
2021/10/19 02:38:38;;;;;;;12.35;11.05;;;;;;;10.70;71.27;101417.72;5049842;28;20028;-42
2021/10/19 02:41:03;;;;;;;15.35;12.27;;;;;;;10.69;71.20;101426.47;5050437;28;20025;-42
2021/10/19 02:43:29;;;;;;;13.55;10.90;;;;;;;10.68;70.95;101424.72;5053214;28;20645;-42
2021/10/19 02:45:54;;;;;;;13.48;10.55;;;;;;;10.68;71.01;101411.53;5041732;28;20461;-42
2021/10/19 02:48:19;;;;;;;13.43;11.40;;;;;;;10.67;71.25;101405.38;5052744;28;20096;-41
2021/10/19 02:50:45;;;;;;;16.60;11.80;;;;;;;10.68;71.00;101408.91;5052442;28;20465;-42
2021/10/19 02:53:10;;;;;;;13.95;11.13;;;;;;;10.68;71.23;101411.53;5053886;28;20031;-42
2021/10/19 02:55:35;;;;;;;14.77;11.45;;;;;;;10.68;71.22;101408.91;5052017;28;20021;-42
2021/10/19 02:58:01;;;;;;;14.23;11.20;;;;;;;10.68;71.13;101411.53;5052289;28;20029;-43
2021/10/19 03:00:26;;;;;;;16.02;11.57;;;;;;;10.68;70.86;101414.19;5057912;28;20036;-43
2021/10/19 03:02:51;;;;;;;14.10;10.90;;;;;;;10.67;70.97;101407.16;5053602;28;20096;-42
2021/10/19 03:05:16;;;;;;;15.65;11.75;;;;;;;10.67;71.21;101409.78;5051523;28;20029;-42
2021/10/19 03:07:42;;;;;;;13.10;10.65;;;;;;;10.66;71.25;101408.91;5053145;28;20028;-43
2021/10/19 03:10:07;;;;;;;15.25;11.48;;;;;;;10.67;71.18;101412.44;5052818;28;20515;-43
2021/10/19 03:12:33;;;;;;;14.65;10.93;;;;;;;10.67;70.88;101396.59;5049365;28;20025;-41
2021/10/19 03:14:58;;;;;;;15.15;11.45;;;;;;;10.65;70.90;101379.00;5052757;28;20384;-42
2021/10/19 03:17:23;;;;;;;14.23;11.40;;;;;;;10.65;70.97;101373.75;5035107;28;20029;-43
2021/10/19 03:19:49;;;;;;;14.30;11.02;;;;;;;10.66;71.23;101374.59;5058602;28;20017;-42
2021/10/19 03:22:14;;;;;;;17.17;12.27;;;;;;;10.67;70.87;101375.50;5052796;28;20020;-42
2021/10/19 03:24:39;;;;;;;13.98;11.18;;;;;;;10.65;70.98;101386.94;5051481;28;20035;-41
2021/10/19 03:27:05;;;;;;;15.23;11.82;;;;;;;10.65;70.85;101367.56;5058040;28;20095;-42
2021/10/19 03:29:30;;;;;;;16.15;12.20;;;;;;;10.64;70.94;101361.41;5049371;28;20029;-43
2021/10/19 03:31:56;;;;;;;14.88;11.57;;;;;;;10.64;70.89;101366.69;5055744;28;20105;-42
2021/10/19 03:34:21;;;;;;;16.05;12.45;;;;;;;10.65;71.08;101368.47;5054186;28;20029;-42
2021/10/19 03:36:46;;;;;;;15.68;11.88;;;;;;;10.64;71.13;101377.22;5057499;28;20028;-42
2021/10/19 03:39:12;;;;;;;15.30;11.98;;;;;;;10.64;70.94;101382.50;5053237;28;20151;-43
2021/10/19 03:41:37;;;;;;;14.10;11.63;;;;;;;10.64;70.92;101377.22;5052793;28;20515;-41
2021/10/19 03:44:02;;;;;;;14.95;10.73;;;;;;;10.64;71.17;101384.28;5053975;28;20868;-42
2021/10/19 03:46:28;;;;;;;14.70;11.40;;;;;;;10.64;71.07;101387.78;5054860;28;20021;-43
2021/10/19 03:48:53;;;;;;;15.43;11.75;;;;;;;10.63;71.00;101388.66;5047553;28;20056;-43
2021/10/19 03:51:21;;;;;;;14.98;11.13;;;;;;;10.64;70.94;101369.31;5050143;28;20037;-42
2021/10/19 03:53:47;;;;;;;14.90;10.88;;;;;;;10.62;70.95;101364.91;5048417;28;20020;-42
2021/10/19 03:56:12;;;;;;;15.13;11.02;;;;;;;10.63;71.14;101364.03;5050843;28;20018;-41
2021/10/19 03:58:37;;;;;;;18.40;13.02;;;;;;;10.64;71.15;101361.41;5054484;28;20139;-42
2021/10/19 04:01:03;;;;;;;14.65;11.02;;;;;;;10.62;71.12;101363.19;5055160;28;20025;-42
2021/10/19 04:03:28;;;;;;;13.02;10.55;;;;;;;10.62;70.97;101357.91;5053941;28;20021;-42
2021/10/19 04:05:54;;;;;;;14.88;12.02;;;;;;;10.63;71.05;101359.66;5054445;28;20438;-42
2021/10/19 04:08:19;;;;;;;14.15;11.52;;;;;;;10.64;71.01;101360.53;5053554;28;20056;-42
2021/10/19 04:10:44;;;;;;;18.38;12.00;;;;;;;10.62;71.20;101349.97;5052925;28;20024;-42
2021/10/19 04:13:10;;;;;;;13.68;10.73;;;;;;;10.62;70.94;101344.72;5056401;28;20027;-42
2021/10/19 04:15:35;;;;;;;16.08;12.77;;;;;;;10.62;71.40;101347.34;5050018;28;20029;-42
2021/10/19 04:18:00;;;;;;;15.15;10.63;;;;;;;10.61;71.04;101342.94;5057330;28;20105;-42
2021/10/19 04:20:26;;;;;;;14.23;11.00;;;;;;;10.62;71.06;101341.19;5038567;28;20115;-43
2021/10/19 04:22:51;;;;;;;14.43;11.32;;;;;;;10.62;71.25;101346.47;5050718;28;20028;-43
2021/10/19 04:25:16;;;;;;;14.70;11.43;;;;;;;10.61;71.25;101356.13;5050219;28;20103;-42
2021/10/19 04:27:42;;;;;;;16.23;12.23;;;;;;;10.61;71.29;101353.47;5053507;28;20056;-42
2021/10/19 04:30:08;;;;;;;12.85;10.02;;;;;;;10.60;70.99;101351.72;5051218;28;20358;-42
2021/10/19 04:32:33;;;;;;;15.02;11.85;;;;;;;10.61;71.18;101344.69;5036686;28;20028;-42
2021/10/19 04:34:58;;;;;;;15.98;10.77;;;;;;;10.60;71.23;101357.00;5052330;28;20024;-42
2021/10/19 04:37:23;;;;;;;15.88;12.23;;;;;;;10.61;71.00;101355.25;5054697;28;20036;-42
2021/10/19 04:39:49;;;;;;;14.63;10.52;;;;;;;10.60;71.06;101359.63;5047484;28;20025;-42
2021/10/19 04:42:14;;;;;;;13.48;11.23;;;;;;;10.60;71.44;101359.63;5048316;28;20029;-42
2021/10/19 04:44:39;;;;;;;14.15;11.45;;;;;;;10.60;71.10;101354.38;5054632;28;20072;-41
2021/10/19 04:47:05;;;;;;;14.45;11.13;;;;;;;10.60;71.36;101357.00;5055516;28;20028;-42
2021/10/19 04:49:30;;;;;;;15.77;11.25;;;;;;;10.61;71.01;101352.63;5050768;28;20028;-42
2021/10/19 04:51:55;;;;;;;14.93;10.73;;;;;;;10.60;71.02;101364.91;5056392;28;20826;-43
2021/10/19 04:54:20;;;;;;;15.10;11.65;;;;;;;10.59;70.98;101355.25;5052005;28;20024;-43
2021/10/19 04:56:46;;;;;;;14.73;11.63;;;;;;;10.59;71.17;101363.16;5051465;28;20028;-42
2021/10/19 04:59:11;;;;;;;14.38;10.68;;;;;;;10.59;71.18;101360.53;5052560;28;20064;-42
2021/10/19 05:01:36;;;;;;;14.85;11.18;;;;;;;10.60;71.19;101359.63;5049660;28;20029;-42
2021/10/19 05:04:02;;;;;;;14.35;11.18;;;;;;;10.60;71.03;101364.06;5055341;28;20021;-42
2021/10/19 05:06:27;;;;;;;15.45;10.95;;;;;;;10.59;71.04;101368.44;5055373;28;20068;-42
2021/10/19 05:08:52;;;;;;;14.25;11.57;;;;;;;10.59;71.27;101362.28;5060271;28;20120;-42
2021/10/19 05:11:18;;;;;;;14.32;11.00;;;;;;;10.59;71.14;101368.44;5056663;28;20107;-42
2021/10/19 05:13:43;;;;;;;13.27;11.02;;;;;;;10.58;71.15;101366.69;5053851;28;20120;-42
2021/10/19 05:16:08;;;;;;;13.90;11.07;;;;;;;10.59;71.32;101372.81;5054829;28;20029;-42
2021/10/19 05:18:34;;;;;;;14.50;10.95;;;;;;;10.58;71.46;101366.69;5058266;28;20025;-43
2021/10/19 05:21:00;;;;;;;14.10;10.63;;;;;;;10.59;71.25;101373.72;5058269;28;20051;-42
2021/10/19 05:23:26;;;;;;;14.88;10.52;;;;;;;10.58;71.10;101371.97;5049541;28;20028;-42
2021/10/19 05:25:51;;;;;;;14.18;12.05;;;;;;;10.58;71.02;101358.78;5062568;28;20021;-42
2021/10/19 05:28:17;;;;;;;15.65;10.93;;;;;;;10.59;70.98;101363.16;5057627;28;20024;-42
2021/10/19 05:30:42;;;;;;;13.45;10.85;;;;;;;10.58;71.03;101361.41;5055507;28;20028;-42
2021/10/19 05:33:08;;;;;;;13.93;11.15;;;;;;;10.58;71.42;101371.97;5053791;28;20380;-42
2021/10/19 05:35:34;;;;;;;14.55;10.68;;;;;;;10.57;71.33;101364.91;5055737;28;20434;-42
2021/10/19 05:37:59;;;;;;;13.13;10.15;;;;;;;10.57;71.19;101375.47;5057943;28;20013;-42
2021/10/19 05:40:25;;;;;;;16.55;10.63;;;;;;;10.58;71.06;101371.06;5058468;28;20060;-42
2021/10/19 05:42:50;;;;;;;14.90;10.60;;;;;;;10.58;71.25;101357.88;5056906;28;20044;-42
2021/10/19 05:45:17;;;;;;;13.75;10.77;;;;;;;10.58;71.45;101365.78;5060045;28;20047;-41
2021/10/19 05:47:42;;;;;;;14.38;11.30;;;;;;;10.57;71.20;101364.03;5060031;28;20047;-42
2021/10/19 05:50:09;;;;;;;14.13;10.45;;;;;;;10.57;70.99;101372.81;5056035;28;20480;-42
2021/10/19 05:52:34;;;;;;;15.60;11.13;;;;;;;10.57;71.06;101357.00;5057139;28;20029;-42
2021/10/19 05:55:00;;;;;;;14.20;10.88;;;;;;;10.57;71.16;101364.91;5056978;28;20025;-42
2021/10/19 05:57:25;;;;;;;15.80;11.70;;;;;;;10.57;71.00;101369.31;5054030;28;20039;-42
2021/10/19 05:59:50;;;;;;;13.93;10.63;;;;;;;10.56;71.37;101367.53;5052708;28;20870;-42
2021/10/19 06:02:16;;;;;;;13.00;10.77;;;;;;;10.56;71.20;101368.44;5057289;28;20047;-42
2021/10/19 06:04:41;;;;;;;13.02;10.10;;;;;;;10.56;71.26;101376.34;5055528;28;20024;-42
2021/10/19 06:07:06;;;;;;;14.25;10.60;;;;;;;10.56;71.30;101365.78;5056942;28;20033;-42
2021/10/19 06:09:32;;;;;;;15.02;10.55;;;;;;;10.57;71.08;101364.91;5057827;28;20082;-42
2021/10/19 06:11:57;;;;;;;15.43;11.00;;;;;;;10.57;71.02;101364.91;5051966;28;20392;-41
2021/10/19 06:14:23;;;;;;;14.38;10.38;;;;;;;10.57;71.16;101372.81;5057045;28;20384;-42
2021/10/19 06:16:50;;;;;;;13.88;10.77;;;;;;;10.56;71.42;101367.53;5054531;28;20124;-43
2021/10/19 06:19:15;;;;;;;12.65;10.18;;;;;;;10.56;71.20;101368.44;5053083;28;20554;-42
2021/10/19 06:21:41;;;;;;;13.32;11.10;;;;;;;10.56;71.42;101352.59;5051580;28;20024;-41
2021/10/19 06:24:06;;;;;;;12.75;9.95;;;;;;;10.56;71.33;101359.63;5053032;28;20037;-42
2021/10/19 06:26:35;;;;;;;14.52;11.00;;;;;;;10.56;71.13;101357.88;5055024;28;21221;-42
2021/10/19 06:29:00;;;;;;;15.32;10.88;;;;;;;10.57;71.43;101348.22;5057249;28;20510;-43
2021/10/19 06:31:26;;;;;;;13.40;10.40;;;;;;;10.55;71.38;101356.13;5056756;28;20036;-43
2021/10/19 06:33:51;;;;;;;14.00;11.27;;;;;;;10.56;71.51;101357.88;5057846;28;20024;-42
2021/10/19 06:36:16;;;;;;;14.80;10.98;;;;;;;10.54;71.39;101343.81;5058029;28;20567;-43
2021/10/19 06:38:42;;;;;;;12.73;10.10;;;;;;;10.55;71.35;101340.28;5054539;28;20031;-43
2021/10/19 06:41:07;;;;;;;13.60;10.45;;;;;;;10.55;71.20;101335.03;5053658;28;20029;-42
2021/10/19 06:43:32;;;;;;;12.93;10.48;;;;;;;10.56;71.19;101325.34;5055087;28;20094;-42
2021/10/19 06:45:58;;;;;;;16.23;11.27;;;;;;;10.54;71.34;101317.44;5048355;28;20060;-43
2021/10/19 06:48:23;;;;;;;14.13;10.65;;;;;;;10.55;71.39;101326.22;5047907;28;20044;-42
2021/10/19 06:50:48;;;;;;;12.65;10.05;;;;;;;10.55;71.18;101319.19;5054373;28;20032;-42
2021/10/19 06:53:13;;;;;;;16.02;11.75;;;;;;;10.55;71.31;101328.84;5052411;28;20036;-43
2021/10/19 06:55:39;;;;;;;12.30;9.88;;;;;;;10.53;71.17;101326.22;5050855;28;20029;-41
2021/10/19 06:58:04;;;;;;;13.88;9.13;;;;;;;10.55;71.40;101336.78;5055798;28;20436;-41
2021/10/19 07:00:29;;;;;;;15.07;11.20;;;;;;;10.54;71.13;101338.53;5057193;23;20835;-39
2021/10/19 07:03:04;;;;;;;13.77;10.30;;;;;;;10.53;71.45;101336.75;5030877;28;20033;-40
2021/10/19 07:05:29;;;;;;;15.27;10.60;;;;;;;10.54;71.27;101327.09;5030063;28;20029;-39
2021/10/19 07:08:02;;;;;;;15.02;11.00;;;;;;;10.53;71.32;101326.22;5022907;28;20029;-40
2021/10/19 07:10:31;;;;;;;14.60;11.32;;;;;;;10.51;71.40;101322.72;5027666;28;20496;-40
2021/10/19 07:12:56;;;;;;;10.95;9.50;;;;;;;10.52;71.28;101329.75;5012624;28;20116;-39
2021/10/19 07:15:24;;;;;;;12.38;10.48;;;;;;;10.53;71.28;101331.50;5018118;28;20113;-39
2021/10/19 07:17:50;;;;;;;13.00;9.80;;;;;;;10.52;71.37;101321.81;5021003;28;20025;-39
2021/10/19 07:20:18;;;;;;;11.35;10.15;;;;;;;10.52;71.26;101330.63;5017289;28;20018;-40
2021/10/19 07:22:44;;;;;;;12.27;10.63;;;;;;;10.53;71.20;101336.75;5011900;28;20612;-40
2021/10/19 07:25:15;;;;;;;13.43;10.57;;;;;;;10.54;71.36;101332.38;5012830;28;20014;-39
2021/10/19 07:27:41;;;;;;;14.10;10.50;;;;;;;10.52;71.44;101335.00;5015385;28;20053;-39
2021/10/19 07:30:07;;;;;;;14.73;10.57;;;;;;;10.52;71.22;101341.19;5018217;28;20516;-40
2021/10/19 07:32:32;;;;;;;12.23;9.48;;;;;;;10.52;71.25;101342.94;5014095;28;20496;-40
2021/10/19 07:35:01;;;;;;;12.50;9.55;;;;;;;10.53;71.41;101339.41;5014011;28;20428;-40
2021/10/19 07:37:26;;;;;;;12.27;9.80;;;;;;;10.52;71.54;101345.56;5015621;28;20037;-39
2021/10/19 07:39:51;;;;;;;13.73;9.77;;;;;;;10.53;71.38;101349.94;5013564;28;20065;-40
2021/10/19 07:42:20;;;;;;;12.95;10.27;;;;;;;10.52;71.51;101348.19;5012796;28;20037;-39
2021/10/19 07:44:48;;;;;;;13.75;9.98;;;;;;;10.53;71.41;101349.94;5014186;28;20017;-39
2021/10/19 07:47:13;;;;;;;12.73;9.90;;;;;;;10.52;71.58;101346.44;5010464;28;20124;-41
2021/10/19 07:49:38;;;;;;;13.63;10.07;;;;;;;10.52;71.42;101327.09;5010317;28;20021;-42
2021/10/19 07:52:07;;;;;;;12.15;9.75;;;;;;;10.53;71.59;101334.13;5009527;28;20543;-39
2021/10/19 07:54:33;;;;;;;11.48;9.77;;;;;;;10.52;71.63;101330.63;5012596;28;20040;-39
2021/10/19 07:56:58;;;;;;;12.63;9.57;;;;;;;10.52;71.59;101319.19;5016414;28;20017;-39
2021/10/19 07:59:23;;;;;;;12.40;9.65;;;;;;;10.51;71.55;101317.44;5011946;28;20026;-39
2021/10/19 08:01:49;;;;;;;12.88;10.02;;;;;;;10.52;71.37;101325.34;5013819;28;20116;-40
2021/10/19 08:04:14;;;;;;;14.00;9.73;;;;;;;10.52;71.34;101324.47;5015369;28;20400;-39
2021/10/19 08:06:39;;;;;;;13.27;9.95;;;;;;;10.52;71.66;101328.00;5016062;28;20037;-41
2021/10/19 08:09:05;;;;;;;13.10;10.77;;;;;;;10.53;71.37;101328.84;5032978;28;20060;-40
2021/10/19 08:11:30;;;;;;;13.73;11.52;;;;;;;10.53;71.33;101315.66;5012462;28;20025;-39
2021/10/19 08:13:58;;;;;;;13.18;10.57;;;;;;;10.52;71.67;101325.34;5018234;28;20092;-40
2021/10/19 08:16:23;;;;;;;12.85;10.25;;;;;;;10.52;71.49;101325.34;5013788;28;20489;-40
2021/10/19 08:18:52;;;;;;;13.20;9.93;;;;;;;10.52;71.77;101327.09;5016311;28;20037;-39
2021/10/19 08:21:17;;;;;;;12.02;9.88;;;;;;;10.53;71.49;101326.22;5013795;28;20087;-39
2021/10/19 08:23:49;;;;;;;12.88;10.35;;;;;;;10.52;71.58;101325.34;5017023;28;20105;-39
2021/10/19 08:26:14;;;;;;;13.25;10.02;;;;;;;10.52;71.63;101330.63;5013668;28;20018;-39
2021/10/19 08:28:43;;;;;;;11.13;9.75;;;;;;;10.54;71.44;101332.38;5013594;28;20152;-40
2021/10/19 08:31:10;;;;;;;12.40;10.25;;;;;;;10.54;71.72;101328.00;5018153;28;20075;-42
2021/10/19 08:33:35;;;;;;;11.55;9.13;;;;;;;10.53;71.45;101320.94;5010109;28;20497;-39
2021/10/19 08:36:01;;;;;;;13.45;9.88;;;;;;;10.55;71.53;101323.59;5010523;28;20033;-40
2021/10/19 08:38:26;;;;;;;11.90;9.65;;;;;;;10.55;71.73;101331.50;5014246;28;20028;-39
2021/10/19 08:40:55;;;;;;;11.73;10.07;;;;;;;10.55;71.73;101316.56;5011245;28;20021;-39
2021/10/19 08:43:23;;;;;;;12.70;10.10;;;;;;;10.55;71.64;101319.19;5009835;28;20084;-40
2021/10/19 08:45:49;;;;;;;10.52;9.23;;;;;;;10.55;71.75;101313.94;5008722;28;20021;-39
2021/10/19 08:48:14;;;;;;;10.50;8.85;;;;;;;10.55;71.75;101313.03;5007308;28;20100;-40
2021/10/19 08:50:40;;;;;;;10.85;9.07;;;;;;;10.55;71.64;101311.28;5004423;28;20049;-41
2021/10/19 08:53:05;;;;;;;11.98;9.93;;;;;;;10.55;71.52;101313.03;5004039;28;20544;-39
2021/10/19 08:55:30;;;;;;;12.73;9.88;;;;;;;10.55;71.77;101316.56;5006908;28;20029;-41
2021/10/19 08:58:02;;;;;;;12.35;10.05;;;;;;;10.56;71.78;101314.78;5007739;28;20524;-40
2021/10/19 09:00:28;;;;;;;12.27;9.80;;;;;;;10.56;71.73;101318.31;5004505;28;20378;-39
2021/10/19 09:02:54;;;;;;;13.18;9.32;;;;;;;10.55;72.00;101302.47;5004500;28;20033;-39
2021/10/19 09:05:22;;;;;;;13.23;9.90;;;;;;;10.57;71.60;101306.00;5006743;28;20018;-39
2021/10/19 09:08:00;;;;;;;11.35;9.30;;;;;;;10.57;71.85;101298.97;5006414;28;20037;-40
2021/10/19 09:10:33;;;;;;;10.88;9.77;;;;;;;10.57;71.83;101304.25;5003923;28;20076;-40
2021/10/19 09:13:01;;;;;;;10.60;9.07;;;;;;;10.58;71.96;101297.22;5003582;28;20447;-39
2021/10/19 09:15:31;;;;;;;10.63;9.52;;;;;;;10.58;71.79;101290.19;5005549;28;20037;-39
2021/10/19 09:18:08;;;;;;;10.95;8.98;;;;;;;10.59;71.64;101296.31;5002041;28;20041;-39
2021/10/19 09:20:57;;;;;;;11.20;9.35;;;;;;;10.59;71.53;101299.84;5005671;28;20040;-41
2021/10/19 09:23:24;;;;;;;11.30;9.10;;;;;;;10.59;71.69;101294.59;4996849;28;20425;-40
2021/10/19 09:25:53;;;;;;;11.98;9.25;;;;;;;10.59;71.82;101291.94;5003350;28;20033;-40
2021/10/19 09:28:37;;;;;;;13.35;9.65;;;;;;;10.59;71.89;101284.03;5006586;28;20030;-39
2021/10/19 09:31:03;;;;;;;10.70;8.52;;;;;;;10.60;71.72;101279.66;5005737;28;20374;-39
2021/10/19 09:33:31;;;;;;;10.38;8.82;;;;;;;10.61;72.07;101284.03;5005551;28;20076;-39
2021/10/19 09:36:02;;;;;;;13.00;8.85;;;;;;;10.61;71.89;101282.25;5006635;28;20022;-41
2021/10/19 09:38:28;;;;;;;;;;;;;;;10.62;71.95;101283.16;5007028;28;20613;-40
2021/10/19 09:40:58;;;;;;;11.70;9.15;;;;;;;10.60;71.85;101284.91;5009466;28;19909;-40
2021/10/19 09:43:25;;;;;;;12.88;8.93;;;;;;;10.60;72.02;101277.88;5009156;28;20060;-42
2021/10/19 09:45:53;;;;;;;10.85;8.82;;;;;;;10.61;72.13;101279.63;5005774;28;20358;-40
2021/10/19 09:48:31;;;;;;;9.63;8.20;;;;;;;10.62;71.91;101273.50;5008809;28;20040;-39
2021/10/19 09:50:56;;;;;;;10.05;8.00;;;;;;;10.63;72.03;101277.88;5008718;28;20084;-39
2021/10/19 09:53:24;;;;;;;9.25;8.05;;;;;;;10.62;72.45;101281.41;5012359;28;20381;-39
2021/10/19 09:55:50;;;;;;;8.85;7.60;;;;;;;10.64;72.28;101290.19;5006287;28;20014;-40
2021/10/19 09:58:16;;;;;;;10.27;8.25;;;;;;;10.62;72.23;101273.50;5008948;28;20608;-39
2021/10/19 10:00:42;;;;;;;11.15;8.45;;;;;;;10.65;72.29;101270.84;5009246;28;20029;-39
2021/10/19 10:03:11;;;;;;;10.20;8.48;;;;;;;10.65;72.48;101264.69;5009934;28;20061;-42
2021/10/19 10:05:36;;;;;;;8.88;7.97;;;;;;;10.65;72.41;101270.84;5010138;28;20389;-40
2021/10/19 10:08:02;;;;;;;9.15;7.70;;;;;;;10.67;72.15;101269.97;5007727;28;20021;-39
2021/10/19 10:10:28;;;;;;;10.48;8.40;;;;;;;10.67;72.08;101264.69;5003682;28;20058;-40
2021/10/19 10:13:06;;;;;;;8.75;7.80;;;;;;;10.68;72.36;101269.06;5008118;28;20026;-39
2021/10/19 10:15:33;;;;;;;9.57;8.07;;;;;;;10.67;72.18;101264.69;5006647;28;20367;-39
2021/10/19 10:18:04;;;;;;;11.50;8.27;;;;;;;10.68;72.13;101266.44;5009609;28;20025;-40
2021/10/19 10:20:36;;;;;;;8.50;7.25;;;;;;;10.68;72.33;101269.97;5006610;28;20065;-39
2021/10/19 10:23:25;;;;;;;9.38;8.25;;;;;;;10.68;72.28;101261.16;5010632;28;20037;-39
2021/10/19 10:25:52;;;;;;;9.35;7.78;;;;;;;10.69;72.55;101262.91;5008394;28;20165;-40
2021/10/19 10:28:28;;;;;;;10.23;7.88;;;;;;;10.70;72.11;101264.69;5011441;28;20028;-39
2021/10/19 10:30:59;;;;;;;10.35;8.25;;;;;;;10.70;72.42;101251.50;5010719;28;20034;-40
2021/10/19 10:33:36;;;;;;;9.52;7.50;;;;;;;10.71;71.94;101261.16;5016974;28;20037;-40
2021/10/19 10:36:05;;;;;;;9.13;8.00;;;;;;;10.70;72.18;101243.59;5016366;28;20041;-40
2021/10/19 10:38:30;;;;;;;9.73;8.73;;;;;;;10.70;72.43;101233.03;5015041;28;20544;-40
2021/10/19 10:41:14;;;;;;;9.35;7.85;;;;;;;10.72;72.35;101240.06;5017491;28;20027;-40
2021/10/19 10:43:39;;;;;;;11.18;7.57;;;;;;;10.71;72.31;101226.88;5013433;28;20067;-39
2021/10/19 10:46:11;;;;;;;8.98;8.07;;;;;;;10.73;72.67;101227.72;5015661;28;20026;-40
2021/10/19 10:48:37;;;;;;;9.93;8.15;;;;;;;10.73;72.73;101231.25;5020726;28;20531;-39
2021/10/19 10:51:04;;;;;;;9.18;8.13;;;;;;;10.73;72.71;101230.38;5012858;28;20124;-40
2021/10/19 10:53:35;;;;;;;9.68;8.05;;;;;;;10.73;72.46;101222.47;5018858;28;20388;-39
2021/10/19 10:56:01;;;;;;;8.57;7.68;;;;;;;10.74;72.45;101225.09;5020366;28;20026;-39
2021/10/19 10:58:32;;;;;;;10.35;7.88;;;;;;;10.74;72.45;101224.25;5015899;28;20079;-39
2021/10/19 11:01:16;;;;;;;10.90;8.35;;;;;;;10.74;72.75;101219.81;5012288;28;20401;-39
2021/10/19 11:03:43;;;;;;;8.90;7.97;;;;;;;10.76;72.39;101209.25;5020550;28;20033;-39
2021/10/19 11:06:12;;;;;;;10.27;7.65;;;;;;;10.76;72.53;101201.34;5018333;28;20026;-38
2021/10/19 11:08:38;;;;;;;8.15;7.22;;;;;;;10.75;72.53;101195.22;5011607;28;20040;-39